TimeCST,TemperatureF,Dew PointF,Humidity,Sea Level PressureIn,VisibilityMPH,Wind Direction,Wind SpeedMPH,Gust SpeedMPH,PrecipitationIn,Events,Conditions,WindDirDegrees,DateUTC
12:53 AM,12.9,8.1,81,29.81,10.0,NNW,9.2,-,N/A,,Clear,340,2013-02-14 06:53:00
1:53 AM,10.0,5.0,80,29.83,10.0,NNW,9.2,-,N/A,,Clear,330,2013-02-14 07:53:00
2:53 AM,8.1,3.9,83,29.86,10.0,NNW,8.1,-,N/A,,Clear,340,2013-02-14 08:53:00
3:53 AM,5.0,1.9,87,29.88,10.0,North,10.4,-,N/A,,Clear,350,2013-02-14 09:53:00
4:22 AM,5.0,3.2,92,29.82,10.0,North,8.1,-,N/A,,Scattered Clouds,350,2013-02-14 10:22:00
4:30 AM,6.8,3.2,85,29.83,10.0,North,8.1,-,N/A,,Mostly Cloudy,350,2013-02-14 10:30:00
4:53 AM,7.0,3.9,87,29.91,10.0,NNW,6.9,-,N/A,,Overcast,340,2013-02-14 10:53:00
5:00 AM,6.8,3.2,85,29.85,10.0,NNW,6.9,-,N/A,,Overcast,340,2013-02-14 11:00:00
5:50 AM,3.2,1.4,92,29.87,10.0,NNW,6.9,-,N/A,,Scattered Clouds,330,2013-02-14 11:50:00
5:53 AM,3.9,1.9,91,29.95,10.0,NNW,8.1,-,N/A,,Partly Cloudy,330,2013-02-14 11:53:00
6:53 AM,3.0,-0.0,87,29.98,10.0,NNW,9.2,-,N/A,,Clear,340,2013-02-14 12:53:00
7:53 AM,1.9,-0.9,88,30.02,10.0,North,8.1,-,N/A,,Scattered Clouds,350,2013-02-14 13:53:00
8:53 AM,3.9,1.0,88,30.06,10.0,NNW,8.1,-,N/A,,Clear,340,2013-02-14 14:53:00
9:53 AM,6.1,1.9,83,30.09,10.0,NNW,10.4,-,N/A,,Mostly Cloudy,330,2013-02-14 15:53:00
10:53 AM,8.1,1.9,76,30.10,10.0,NNW,10.4,-,N/A,,Clear,340,2013-02-14 16:53:00
11:53 AM,10.0,3.0,73,30.11,10.0,NNW,10.4,-,N/A,,Mostly Cloudy,330,2013-02-14 17:53:00
12:53 PM,12.0,3.0,67,30.12,10.0,NNW,12.7,-,N/A,,Clear,330,2013-02-14 18:53:00
1:53 PM,15.1,-0.0,51,30.12,10.0,NW,10.4,-,N/A,,Clear,320,2013-02-14 19:53:00
2:53 PM,17.1,3.0,54,30.13,10.0,NW,9.2,-,N/A,,Clear,320,2013-02-14 20:53:00
3:53 PM,17.1,1.9,52,30.14,10.0,NW,11.5,-,N/A,,Partly Cloudy,310,2013-02-14 21:53:00
4:53 PM,17.1,3.0,54,30.16,10.0,Variable,5.8,-,N/A,,Clear,0,2013-02-14 22:53:00
5:53 PM,14.0,3.0,62,30.17,10.0,WNW,5.8,-,N/A,,Mostly Cloudy,300,2013-02-14 23:53:00
6:53 PM,10.9,1.9,67,30.19,10.0,WNW,5.8,-,N/A,,Scattered Clouds,290,2013-02-15 00:53:00
7:53 PM,10.9,1.0,64,30.21,10.0,NW,10.4,-,N/A,,Overcast,310,2013-02-15 01:53:00
8:53 PM,9.0,1.9,73,30.22,10.0,NW,16.1,24.2,N/A,,Overcast,320,2013-02-15 02:53:00
9:53 PM,5.0,-0.0,80,30.24,10.0,NW,10.4,-,N/A,,Clear,320,2013-02-15 03:53:00
10:53 PM,3.0,-0.9,84,30.25,10.0,NW,9.2,-,N/A,,Clear,320,2013-02-15 04:53:00
11:53 PM,1.0,-2.0,87,30.25,10.0,WNW,5.8,-,N/A,,Clear,290,2013-02-15 05:53:00